createdAt,value
2018-02-13T00:01:48.508Z,238.60
2018-02-13T00:04:16.309Z,244.57
2018-02-13T00:06:43.886Z,277.38
2018-02-13T00:09:11.476Z,250.73
2018-02-13T00:11:39.822Z,244.82
2018-02-13T00:14:07.385Z,255.18
2018-02-13T00:16:35.142Z,239.18
2018-02-13T00:19:03.026Z,229.82
2018-02-13T00:21:30.825Z,238.57
2018-02-13T00:23:58.665Z,208.23
2018-02-13T00:26:26.435Z,215.55
2018-02-13T00:28:54.310Z,220.73
2018-02-13T00:31:22.122Z,211.15
2018-02-13T00:33:49.678Z,225.85
2018-02-13T00:36:17.477Z,232.80
2018-02-13T00:38:45.046Z,268.75
2018-02-13T00:41:12.865Z,235.63
2018-02-13T00:43:40.726Z,262.48
2018-02-13T00:46:08.277Z,263.80
2018-02-13T00:48:35.847Z,278.30
2018-02-13T00:51:03.468Z,265.35
2018-02-13T00:53:31.525Z,314.23
2018-02-13T00:55:59.332Z,286.87
2018-02-13T00:58:28.201Z,283.60
2018-02-13T01:00:56.947Z,302.75
2018-02-13T01:03:24.574Z,294.98
2018-02-13T01:05:52.230Z,224.65
2018-02-13T01:08:19.956Z,205.80
2018-02-13T01:10:48.113Z,174.35
2018-02-13T01:13:15.782Z,199.82
2018-02-13T01:15:43.492Z,180.23
2018-02-13T01:18:11.103Z,171.30
2018-02-13T01:20:39.564Z,170.07
2018-02-13T01:23:08.184Z,167.00
2018-02-13T01:25:36.241Z,182.15
2018-02-13T01:28:03.889Z,203.40
2018-02-13T01:30:31.487Z,212.65
2018-02-13T01:32:59.634Z,259.50
2018-02-13T01:35:27.293Z,286.60
2018-02-13T01:37:55.043Z,254.13
2018-02-13T01:40:23.362Z,232.87
2018-02-13T01:42:51.216Z,198.15
2018-02-13T01:45:19.308Z,191.43
2018-02-13T01:47:47.134Z,145.80
2018-02-13T01:50:25.558Z,129.20
2018-02-13T01:52:54.458Z,102.50
2018-02-13T01:55:22.126Z,123.68
2018-02-13T01:57:50.540Z,123.53
2018-02-13T02:00:18.154Z,101.25
2018-02-13T02:02:45.810Z,85.40
2018-02-13T02:05:13.410Z,53.85
2018-02-13T02:07:41.443Z,44.45
2018-02-13T02:10:10.764Z,77.00
2018-02-13T02:12:38.404Z,57.38
2018-02-13T02:15:06.780Z,53.20
2018-02-13T02:17:34.455Z,68.40
2018-02-13T02:20:02.120Z,67.28
2018-02-13T02:22:29.748Z,47.90
2018-02-13T02:24:57.455Z,56.40
2018-02-13T02:27:25.837Z,54.20
2018-02-13T02:29:53.764Z,53.20
2018-02-13T02:32:21.429Z,47.13
2018-02-13T02:34:49.255Z,48.58
2018-02-13T02:37:16.863Z,52.22
2018-02-13T02:39:44.463Z,69.20
2018-02-13T02:42:12.086Z,64.82
2018-02-13T02:44:40.145Z,61.13
2018-02-13T02:47:07.763Z,63.05
2018-02-13T02:49:35.404Z,62.05
2018-02-13T02:52:03.019Z,65.40
2018-02-13T02:54:30.597Z,70.05
2018-02-13T02:56:58.229Z,84.18
2018-02-13T02:59:25.863Z,95.78
2018-02-13T03:01:53.511Z,90.35
2018-02-13T03:04:22.177Z,84.90
2018-02-13T03:06:49.792Z,89.35
2018-02-13T03:09:17.355Z,96.97
2018-02-13T03:11:45.050Z,110.05
2018-02-13T03:14:13.393Z,114.90
2018-02-13T03:16:41.755Z,98.93
2018-02-13T03:19:09.389Z,120.62
2018-02-13T03:21:37.381Z,103.20
2018-02-13T03:24:05.100Z,84.45
2018-02-13T03:26:32.905Z,138.18
2018-02-13T03:29:00.539Z,125.45
2018-02-13T03:31:28.151Z,135.48
2018-02-13T03:33:57.115Z,201.70
2018-02-13T03:36:25.650Z,159.60
2018-02-13T03:38:53.704Z,101.12
2018-02-13T03:41:21.588Z,96.22
2018-02-13T03:43:49.228Z,97.80
2018-02-13T03:46:17.619Z,99.70
2018-02-13T03:48:45.218Z,94.10
2018-02-13T03:51:12.897Z,105.35
2018-02-13T03:53:40.574Z,86.30
2018-02-13T03:56:08.247Z,76.37
2018-02-13T03:58:35.853Z,70.15
2018-02-13T04:01:03.445Z,72.05
2018-02-13T04:03:31.060Z,76.60
2018-02-13T04:05:59.786Z,85.22
2018-02-13T04:08:27.900Z,97.40
2018-02-13T04:10:55.507Z,101.87
2018-02-13T04:13:23.117Z,87.68
2018-02-13T04:15:51.578Z,109.60
2018-02-13T04:18:19.153Z,125.47
2018-02-13T04:20:46.782Z,106.40
2018-02-13T04:23:15.056Z,134.00
2018-02-13T04:25:42.907Z,122.35
2018-02-13T04:28:10.949Z,113.32
2018-02-13T04:30:39.065Z,127.07
2018-02-13T04:33:07.136Z,127.18
2018-02-13T04:35:35.540Z,101.28
2018-02-13T04:38:04.488Z,111.97
2018-02-13T04:40:33.287Z,83.82
2018-02-13T04:43:02.171Z,104.30
2018-02-13T04:45:30.019Z,84.87
2018-02-13T04:47:59.029Z,77.80
2018-02-13T04:50:26.956Z,70.75
2018-02-13T04:52:55.011Z,74.68
2018-02-13T04:55:22.694Z,59.30
2018-02-13T04:57:50.565Z,65.32
2018-02-13T05:00:19.257Z,64.82
2018-02-13T05:02:47.726Z,60.70
2018-02-13T05:05:15.534Z,46.25
2018-02-13T05:07:43.343Z,57.65
2018-02-13T05:10:11.078Z,59.22
2018-02-13T05:12:39.638Z,47.53
2018-02-13T05:15:07.461Z,58.05
2018-02-13T05:17:35.336Z,47.58
2018-02-13T05:20:03.052Z,47.05
2018-02-13T05:22:30.771Z,41.67
2018-02-13T05:24:58.413Z,46.05
2018-02-13T05:27:26.369Z,43.75
2018-02-13T05:29:53.978Z,53.05
2018-02-13T05:32:22.609Z,47.03
2018-02-13T05:34:50.225Z,37.63
2018-02-13T05:37:17.834Z,42.45
2018-02-13T05:39:45.647Z,36.58
2018-02-13T05:42:13.184Z,35.80
2018-02-13T05:44:41.028Z,34.53
2018-02-13T05:47:08.965Z,29.70
2018-02-13T05:49:36.526Z,35.53
2018-02-13T05:52:04.320Z,40.83
2018-02-13T05:54:32.066Z,39.27
2018-02-13T05:56:59.652Z,40.53
2018-02-13T05:59:27.213Z,41.90
2018-02-13T06:01:54.835Z,42.33
2018-02-13T06:04:22.364Z,50.03
2018-02-13T06:06:49.935Z,35.75
2018-02-13T06:09:17.454Z,35.53
2018-02-13T06:11:45.023Z,45.03
2018-02-13T06:14:12.627Z,39.78
2018-02-13T06:16:40.198Z,37.60
2018-02-13T06:19:07.753Z,34.60
2018-02-13T06:21:35.281Z,27.37
2018-02-13T06:24:02.827Z,33.20
2018-02-13T06:26:30.483Z,35.97
2018-02-13T06:28:57.991Z,40.12
2018-02-13T06:31:25.536Z,44.45
2018-02-13T06:33:53.094Z,43.40
2018-02-13T06:36:20.646Z,39.85
2018-02-13T06:38:48.431Z,50.33
2018-02-13T06:41:16.988Z,46.53
2018-02-13T06:43:44.517Z,50.88
2018-02-13T06:46:12.038Z,47.80
2018-02-13T06:48:39.566Z,52.38
2018-02-13T06:51:07.108Z,41.22
2018-02-13T06:53:34.669Z,49.45
2018-02-13T06:56:02.230Z,46.85
2018-02-13T06:58:30.037Z,54.92
2018-02-13T07:00:57.591Z,46.22
2018-02-13T07:03:25.127Z,49.38
2018-02-13T07:05:53.558Z,46.22
2018-02-13T07:08:21.435Z,52.55
2018-02-13T07:10:48.970Z,46.15
2018-02-13T07:13:16.612Z,46.37
2018-02-13T07:15:44.173Z,49.40
2018-02-13T07:18:11.948Z,45.15
2018-02-13T07:20:39.506Z,38.47
2018-02-13T07:23:07.095Z,43.53
2018-02-13T07:25:34.733Z,44.70
2018-02-13T07:28:02.328Z,47.97
2018-02-13T07:30:30.248Z,51.40
2018-02-13T07:32:57.769Z,48.92
2018-02-13T07:35:25.308Z,47.00
2018-02-13T07:37:52.855Z,44.45
2018-02-13T07:40:20.730Z,40.92
2018-02-13T07:42:48.299Z,35.17
2018-02-13T07:45:15.891Z,36.50
2018-02-13T07:47:43.451Z,43.73
2018-02-13T07:50:11.285Z,34.53
2018-02-13T07:52:38.878Z,37.05
2018-02-13T07:55:06.665Z,38.87
2018-02-13T07:57:34.443Z,37.20
2018-02-13T08:00:02.237Z,48.23
2018-02-13T08:02:29.760Z,37.37
2018-02-13T08:04:57.299Z,45.77
2018-02-13T08:07:24.851Z,44.45
2018-02-13T08:09:52.399Z,45.50
2018-02-13T08:12:19.939Z,51.42
2018-02-13T08:14:47.468Z,43.83
2018-02-13T08:17:14.996Z,41.73
2018-02-13T08:19:42.554Z,42.75
2018-02-13T08:22:10.080Z,44.97
2018-02-13T08:24:38.453Z,51.97
2018-02-13T08:27:05.977Z,49.03
2018-02-13T08:29:33.726Z,56.47
2018-02-13T08:32:01.340Z,52.08
2018-02-13T08:34:28.877Z,50.73
2018-02-13T08:36:56.769Z,48.93
2018-02-13T08:39:24.295Z,52.33
2018-02-13T08:41:51.810Z,43.90
2018-02-13T08:44:19.356Z,43.30
2018-02-13T08:46:46.884Z,39.50
2018-02-13T08:49:14.431Z,41.03
2018-02-13T08:51:41.949Z,43.63
2018-02-13T08:54:09.756Z,35.60
2018-02-13T08:56:37.289Z,51.83
2018-02-13T08:59:05.354Z,43.47
2018-02-13T09:01:33.203Z,28.77
2018-02-13T09:04:00.744Z,30.90
2018-02-13T09:06:28.701Z,31.33
2018-02-13T09:08:56.887Z,35.30
2018-02-13T09:11:24.428Z,35.20
2018-02-13T09:13:51.990Z,25.93
2018-02-13T09:16:19.516Z,31.57
2018-02-13T09:18:47.040Z,28.27
2018-02-13T09:21:14.558Z,32.30
2018-02-13T09:23:43.040Z,25.97
2018-02-13T09:26:10.605Z,31.00
2018-02-13T09:28:38.164Z,27.80
2018-02-13T09:31:06.043Z,33.77
2018-02-13T09:33:33.812Z,27.13
2018-02-13T09:36:01.343Z,27.20
2018-02-13T09:38:28.885Z,25.50
2018-02-13T09:40:56.432Z,28.90
2018-02-13T09:43:24.030Z,32.57
2018-02-13T09:45:51.638Z,32.00
2018-02-13T09:48:19.201Z,40.33
2018-02-13T09:50:46.717Z,37.60
2018-02-13T09:53:14.228Z,37.33
2018-02-13T09:55:41.782Z,37.83
2018-02-13T09:58:09.340Z,36.10
2018-02-13T10:00:36.906Z,34.63
2018-02-13T10:03:04.458Z,41.23
2018-02-13T10:05:31.990Z,30.17
2018-02-13T10:07:59.507Z,34.00
2018-02-13T10:10:27.264Z,35.93
2018-02-13T10:12:54.821Z,36.67
2018-02-13T10:15:22.339Z,39.80
2018-02-13T10:17:50.148Z,34.50
2018-02-13T10:20:17.678Z,34.53
2018-02-13T10:22:45.218Z,35.13
2018-02-13T10:25:12.769Z,32.37
2018-02-13T10:27:40.514Z,36.05
2018-02-13T10:30:08.177Z,37.67
2018-02-13T10:32:35.735Z,41.30
2018-02-13T10:35:03.245Z,33.93
2018-02-13T10:37:30.997Z,28.50
2018-02-13T10:39:58.729Z,30.13
2018-02-13T10:42:26.274Z,37.17
2018-02-13T10:44:53.810Z,30.63
2018-02-13T10:47:21.344Z,30.17
2018-02-13T10:49:49.726Z,37.47
2018-02-13T10:52:17.284Z,33.50
2018-02-13T10:54:44.825Z,37.90
2018-02-13T10:57:12.335Z,41.63
2018-02-13T10:59:40.101Z,39.23
2018-02-13T11:02:13.084Z,41.63
2018-02-13T11:04:40.825Z,42.73
2018-02-13T11:07:08.490Z,43.80
2018-02-13T11:09:36.010Z,36.03
2018-02-13T11:12:03.871Z,40.47
2018-02-13T11:14:32.359Z,38.00
2018-02-13T11:16:59.894Z,35.13
2018-02-13T11:19:27.467Z,31.33
2018-02-13T11:21:55.356Z,33.83
2018-02-13T11:24:22.902Z,36.28
2018-02-13T11:26:50.436Z,39.23
2018-02-13T11:29:17.953Z,35.70
2018-02-13T11:31:45.504Z,37.40
2018-02-13T11:34:13.064Z,30.85
2018-02-13T11:36:40.910Z,36.20
2018-02-13T11:39:08.496Z,37.65
2018-02-13T11:41:36.025Z,31.70
2018-02-13T11:44:03.570Z,33.00
2018-02-13T11:46:31.107Z,31.52
2018-02-13T11:48:58.631Z,37.03
2018-02-13T11:51:26.195Z,36.60
2018-02-13T11:53:54.548Z,41.23
2018-02-13T11:56:22.078Z,39.20
2018-02-13T11:58:49.611Z,33.60
2018-02-13T12:01:17.177Z,41.10
2018-02-13T12:03:44.981Z,33.57
2018-02-13T12:06:12.494Z,33.60
2018-02-13T12:08:40.046Z,42.60
2018-02-13T12:11:07.609Z,34.60
2018-02-13T12:13:35.166Z,31.53
2018-02-13T12:16:03.599Z,33.67
2018-02-13T12:18:31.172Z,37.50
2018-02-13T12:20:58.734Z,29.87
2018-02-13T12:23:26.289Z,39.43
2018-02-13T12:25:53.855Z,29.63
2018-02-13T12:28:21.382Z,33.60
2018-02-13T12:30:48.955Z,31.83
2018-02-13T12:33:16.734Z,35.33
2018-02-13T12:35:44.274Z,36.97
2018-02-13T12:38:11.809Z,32.07
2018-02-13T12:40:39.621Z,35.17
2018-02-13T12:43:07.172Z,42.80
2018-02-13T12:45:34.733Z,33.20
2018-02-13T12:48:03.078Z,32.37
2018-02-13T12:50:31.120Z,31.10
2018-02-13T12:52:59.344Z,32.50
2018-02-13T12:55:27.558Z,39.23
2018-02-13T12:57:55.292Z,33.17
2018-02-13T13:00:23.618Z,32.23
2018-02-13T13:02:51.184Z,38.30
2018-02-13T13:05:18.757Z,36.73
2018-02-13T13:07:46.313Z,38.97
2018-02-13T13:10:13.887Z,33.60
2018-02-13T13:12:41.440Z,37.83
2018-02-13T13:15:09.278Z,39.90
2018-02-13T13:17:36.863Z,38.37
2018-02-13T13:20:04.624Z,38.47
2018-02-13T13:22:32.155Z,37.13
2018-02-13T13:24:59.694Z,38.13
2018-02-13T13:27:27.423Z,40.50
2018-02-13T13:29:55.233Z,32.90
2018-02-13T13:32:22.841Z,41.70
2018-02-13T13:38:11.727Z,42.80
2018-02-13T13:40:39.569Z,34.67
2018-02-13T13:43:07.089Z,39.07
2018-02-13T13:45:34.617Z,30.30
2018-02-13T13:48:02.172Z,35.20
2018-02-13T13:50:29.774Z,38.27
2018-02-13T13:52:57.402Z,34.92
2018-02-13T13:55:25.029Z,34.83
2018-02-13T13:57:52.626Z,40.30
2018-02-13T14:00:20.255Z,35.85
2018-02-13T14:02:47.823Z,39.40
2018-02-13T14:05:15.513Z,40.70
2018-02-13T14:07:43.044Z,32.47
2018-02-13T14:10:10.579Z,41.30
2018-02-13T14:12:38.111Z,47.25
2018-02-13T14:15:05.903Z,44.73
2018-02-13T14:17:33.997Z,48.28
2018-02-13T14:20:01.560Z,34.58
2018-02-13T14:22:29.140Z,36.15
2018-02-13T14:24:56.748Z,42.90
2018-02-13T14:27:24.280Z,47.13
2018-02-13T14:29:51.885Z,42.10
2018-02-13T14:32:19.423Z,49.05
2018-02-13T14:34:46.960Z,39.88
2018-02-13T14:37:14.670Z,46.42
2018-02-13T14:39:42.207Z,40.38
2018-02-13T14:42:09.770Z,46.45
2018-02-13T14:44:37.384Z,46.75
2018-02-13T14:47:05.631Z,42.85
2018-02-13T14:49:33.470Z,33.20
2018-02-13T14:52:01.063Z,45.12
2018-02-13T14:54:28.613Z,42.25
2018-02-13T14:56:56.796Z,45.00
2018-02-13T14:59:24.528Z,46.67
2018-02-13T15:01:52.123Z,47.10
2018-02-13T15:04:20.174Z,45.85
2018-02-13T15:06:48.168Z,50.58
2018-02-13T15:09:15.709Z,54.78
2018-02-13T15:11:43.472Z,49.22
2018-02-13T15:14:11.575Z,56.33
2018-02-13T15:16:40.013Z,59.72
2018-02-13T15:19:07.659Z,58.22
2018-02-13T15:21:35.214Z,55.00
2018-02-13T15:24:03.149Z,49.28
2018-02-13T15:26:30.789Z,47.58
2018-02-13T15:28:58.592Z,45.60
2018-02-13T15:31:26.218Z,50.22
2018-02-13T15:33:53.803Z,51.45
2018-02-13T15:36:21.604Z,49.22
2018-02-13T15:38:49.419Z,45.10
2018-02-13T15:41:17.066Z,49.97
2018-02-13T15:43:44.845Z,59.80
2018-02-13T15:46:12.448Z,55.10
2018-02-13T15:48:40.220Z,52.70
2018-02-13T15:51:07.820Z,59.10
2018-02-13T15:53:35.508Z,61.67
2018-02-13T15:56:03.366Z,57.42
2018-02-13T15:58:30.927Z,58.20
2018-02-13T16:00:58.576Z,53.25
2018-02-13T16:03:26.269Z,48.05
2018-02-13T16:05:53.977Z,50.53
2018-02-13T16:08:21.774Z,43.33
2018-02-13T16:10:49.326Z,49.20
2018-02-13T16:13:16.904Z,49.08
2018-02-13T16:15:44.486Z,51.00
2018-02-13T16:18:12.901Z,44.90
2018-02-13T16:20:40.537Z,50.58
2018-02-13T16:23:08.406Z,43.45
2018-02-13T16:25:36.375Z,42.20
2018-02-13T16:28:04.500Z,43.87
2018-02-13T16:30:32.111Z,38.67
2018-02-13T16:32:59.906Z,42.42
2018-02-13T16:35:27.748Z,48.10
2018-02-13T16:37:55.548Z,37.00
2018-02-13T16:40:23.183Z,34.78
2018-02-13T16:42:50.774Z,34.50
2018-02-13T16:45:18.642Z,34.30
2018-02-13T16:47:46.408Z,32.65
2018-02-13T16:50:15.039Z,30.23
2018-02-13T16:52:42.629Z,30.55
2018-02-13T16:55:10.432Z,38.75
2018-02-13T16:57:39.017Z,38.03
2018-02-13T17:00:06.652Z,42.67
2018-02-13T17:02:34.594Z,39.95
2018-02-13T17:05:02.217Z,45.35
2018-02-13T17:07:29.880Z,40.53
2018-02-13T17:09:57.581Z,45.40
2018-02-13T17:12:25.205Z,41.53
2018-02-13T17:14:52.982Z,43.33
2018-02-13T17:17:20.808Z,37.65
2018-02-13T17:19:48.558Z,43.47
2018-02-13T17:22:16.206Z,48.33
2018-02-13T17:24:44.017Z,52.83
2018-02-13T17:27:11.631Z,46.85
2018-02-13T17:29:39.240Z,45.85
2018-02-13T17:32:07.033Z,42.55
2018-02-13T17:34:34.668Z,35.42
2018-02-13T17:37:02.494Z,41.83
2018-02-13T17:39:30.131Z,35.38
2018-02-13T17:41:57.701Z,39.42
2018-02-13T17:44:25.289Z,40.05
2018-02-13T17:46:52.900Z,43.13
2018-02-13T17:49:20.685Z,39.25
2018-02-13T17:51:48.446Z,44.15
2018-02-13T17:54:16.035Z,46.13
2018-02-13T17:56:43.683Z,49.33
2018-02-13T17:59:11.313Z,49.38
2018-02-13T18:01:38.899Z,46.20
2018-02-13T18:04:06.473Z,42.72
2018-02-13T18:06:34.076Z,35.97
2018-02-13T18:09:01.715Z,39.55
2018-02-13T18:11:29.327Z,39.13
2018-02-13T18:13:57.135Z,36.00
2018-02-13T18:16:24.891Z,30.88
2018-02-13T18:18:52.480Z,39.70
2018-02-13T18:21:20.233Z,32.75
2018-02-13T18:23:47.844Z,34.28
2018-02-13T18:26:15.652Z,38.83
2018-02-13T18:28:43.440Z,31.25
2018-02-13T18:31:11.049Z,38.70
2018-02-13T18:33:38.640Z,35.45
2018-02-13T18:36:06.228Z,37.97
2018-02-13T18:38:33.818Z,36.38
2018-02-13T18:41:02.087Z,32.05
2018-02-13T18:43:30.369Z,38.60
2018-02-13T18:45:59.016Z,30.90
2018-02-13T18:48:26.610Z,37.72
2018-02-13T18:50:54.191Z,36.00
2018-02-13T18:53:22.118Z,32.17
2018-02-13T18:55:50.349Z,33.70
2018-02-13T18:58:18.074Z,33.20
2018-02-13T19:00:46.079Z,30.75
2018-02-13T19:03:13.724Z,28.30
2018-02-13T19:05:41.496Z,30.15
2018-02-13T19:08:10.843Z,31.37
2018-02-13T19:10:38.458Z,31.12
2018-02-13T19:13:06.223Z,29.80
2018-02-13T19:15:33.869Z,34.90
2018-02-13T19:18:01.496Z,30.40
2018-02-13T19:20:29.185Z,27.17
2018-02-13T19:22:56.978Z,37.72
2018-02-13T19:25:24.571Z,42.00
2018-02-13T19:27:52.181Z,46.10
2018-02-13T19:30:19.991Z,34.07
2018-02-13T19:32:49.362Z,36.85
2018-02-13T19:35:17.401Z,33.70
2018-02-13T19:37:46.910Z,28.90
2018-02-13T19:40:17.046Z,27.95
2018-02-13T19:42:47.374Z,29.60
2018-02-13T19:45:16.664Z,28.67
2018-02-13T19:47:45.976Z,32.50
2018-02-13T19:50:15.620Z,27.90
2018-02-13T19:52:44.677Z,26.70
2018-02-13T19:55:14.130Z,28.80
2018-02-13T19:57:43.381Z,31.52
2018-02-13T20:00:12.305Z,33.33
2018-02-13T20:02:40.871Z,26.87
2018-02-13T20:05:09.271Z,26.47
2018-02-13T20:07:37.658Z,29.48
2018-02-13T20:10:06.315Z,27.95
2018-02-13T20:12:35.578Z,32.17
2018-02-13T20:15:05.175Z,25.37
2018-02-13T20:17:33.774Z,26.80
2018-02-13T20:20:01.957Z,25.80
2018-02-13T20:22:30.482Z,29.17
2018-02-13T20:24:58.822Z,34.30
2018-02-13T20:27:27.211Z,35.90
2018-02-13T20:29:55.714Z,38.90
2018-02-13T20:32:23.689Z,37.13
2018-02-13T20:34:51.499Z,29.03
2018-02-13T20:37:19.383Z,41.20
2018-02-13T20:39:49.159Z,28.67
2018-02-13T20:42:17.155Z,28.40
2018-02-13T20:44:46.043Z,27.70
2018-02-13T20:47:13.995Z,34.87
2018-02-13T20:49:41.799Z,35.05
2018-02-13T20:52:09.549Z,29.80
2018-02-13T20:54:38.886Z,22.83
2018-02-13T20:57:06.915Z,29.48
2018-02-13T20:59:34.748Z,32.23
2018-02-13T21:02:02.625Z,27.07
2018-02-13T21:04:30.368Z,30.53
2018-02-13T21:06:58.462Z,29.23
2018-02-13T21:09:26.292Z,27.27
2018-02-13T21:11:54.062Z,26.77
2018-02-13T21:14:21.798Z,28.17
2018-02-13T21:16:49.399Z,31.02
2018-02-13T21:19:17.216Z,29.80
2018-02-13T21:21:44.838Z,31.70
2018-02-13T21:24:12.676Z,32.50
2018-02-13T21:26:40.430Z,30.80
2018-02-13T21:29:08.361Z,32.30
2018-02-13T21:31:36.377Z,26.00
2018-02-13T21:34:04.047Z,31.97
2018-02-13T21:36:31.846Z,30.93
2018-02-13T21:38:59.605Z,35.00
2018-02-13T21:41:27.304Z,30.57
2018-02-13T21:43:54.948Z,28.93
2018-02-13T21:46:22.556Z,30.67
2018-02-13T21:48:50.393Z,30.10
2018-02-13T21:51:17.984Z,30.87
2018-02-13T21:53:45.772Z,39.63
2018-02-13T21:56:13.931Z,40.90
2018-02-13T21:58:42.385Z,45.90
2018-02-13T22:01:09.985Z,49.28
2018-02-13T22:03:37.621Z,45.47
2018-02-13T22:06:05.257Z,49.00
2018-02-13T22:08:32.853Z,48.90
2018-02-13T22:11:00.645Z,54.13
2018-02-13T22:13:28.414Z,54.93
2018-02-13T22:15:56.037Z,46.90
2018-02-13T22:18:24.215Z,44.80
2018-02-13T22:20:51.785Z,42.50
2018-02-13T22:23:19.549Z,42.07
2018-02-13T22:25:51.198Z,42.30
2018-02-13T22:28:18.813Z,33.00
2018-02-13T22:30:46.405Z,35.00
2018-02-13T22:33:13.976Z,34.07
2018-02-13T22:35:41.557Z,25.70
2018-02-13T22:38:09.179Z,26.67
2018-02-13T22:40:36.777Z,24.80
2018-02-13T22:43:04.389Z,23.87
2018-02-13T22:45:32.154Z,25.60
2018-02-13T22:47:59.928Z,28.37
2018-02-13T22:50:27.582Z,26.00
2018-02-13T22:52:55.386Z,27.47
2018-02-13T22:55:23.019Z,27.15
2018-02-13T22:57:50.604Z,27.83
2018-02-13T23:00:21.344Z,28.83
2018-02-13T23:02:48.907Z,29.40
2018-02-13T23:05:16.665Z,30.40
2018-02-13T23:07:44.261Z,27.00
2018-02-13T23:10:11.887Z,28.47
2018-02-13T23:12:39.697Z,32.70
2018-02-13T23:15:07.477Z,31.77
2018-02-13T23:17:35.243Z,30.80
2018-02-13T23:20:02.846Z,26.10
2018-02-13T23:22:30.657Z,33.50
2018-02-13T23:24:58.431Z,34.13
2018-02-13T23:27:26.200Z,27.40
2018-02-13T23:29:53.961Z,30.83
2018-02-13T23:32:21.554Z,24.43
2018-02-13T23:34:49.286Z,30.63
2018-02-13T23:37:16.884Z,26.73
2018-02-13T23:39:44.488Z,27.20
2018-02-13T23:42:12.095Z,30.93
2018-02-13T23:44:39.793Z,30.80
2018-02-13T23:47:07.397Z,27.80
2018-02-13T23:49:35.001Z,26.83
2018-02-13T23:52:02.650Z,35.25
2018-02-13T23:54:30.529Z,51.07
2018-02-13T23:56:58.101Z,60.03
2018-02-13T23:59:25.747Z,36.73
